Paul R Tregurtha — WYR4481 — position and weather

sailwx.info

Track history (hours):
 
Tides and Currents Weather Stations Pressure Air Temp Water Temp Dewpoint Dewpoint Depression Visibility Wind Speed Wind Dir Waves Ship Positions

Paul R Tregurtha

Owner: THE INTERLAKE STEAMSHIP COMPANY, Middleburg Heights, OH. More information available from US FCC via Universal Licensing System and Coast Guard Vessel Documentation Center.

Last reported at 2016-Dec-03 19:00 UTC. Time now 2016-Dec-03 19:39 UTC.
Position N 42°42' W 082°30'.

Length 309 m; draft 8.5 m.

Type: Cargo ship. MMSI: 366904940.

Wind from 250 at 9 knots

Barometer 1025.2 mb
Air temperature 4.1 ° C
Water temperature 8.3 ° C

Date/timePositionNaut miles runAvg speedWind from/ knotsBaromVisibWave heightAir tempDewpointWater temp
2016-Dec-03 19:00N 42°42' W 082°30'7 7.4 250 / 91025.2 4.1 8.3
2016-Dec-03 18:00N 42°36' W 082°36'7 7.5 280 / 81024.3 3.7 8.1
2016-Dec-03 17:00N 42°30' W 082°42'1110.7 290 / 111025.0 3.3 6.8
2016-Dec-03 16:00N 42°24' W 082°54'1110.7 300 / 91026.0 2.9 6.9
2016-Dec-03 15:00N 42°18' W 083°06'1212.0 280 / 101026.7 2.8 7.0
2016-Dec-03 14:00N 42°06' W 083°06'6 6.0 270 / 71026.7 2.3 6.5
2016-Dec-03 13:00N 42°00' W 083°06'7 7.5 260 / 101026.2 2.6 6.5
2016-Dec-03 12:00N 41°54' W 083°12'4 4.5 260 / 111026.2 3.7 5.8
2016-Dec-03 11:00N 41°54' W 083°18'0 0.0 270 / 61025.6 2.8 5.9
2016-Dec-03 10:00N 41°54' W 083°18'0 0.0 1025.2 2.6 6.1
2016-Dec-03 09:00N 41°54' W 083°18'0 0.0 350 / 71025.2 2.4 6.3
2016-Dec-03 08:00N 41°54' W 083°18'0 0.0 340 / 41024.9 2.3 6.7
2016-Dec-03 07:00N 41°54' W 083°18'0 0.0 320 / 21024.5 2.7 6.2
2016-Dec-03 06:00N 41°54' W 083°18'0 0.0 340 / 61024.2 2.5 6.3
2016-Dec-03 05:00N 41°54' W 083°18'0 0.0 310 / 31024.5 2.5 6.0
2016-Dec-03 04:00N 41°54' W 083°18'0 0.0 350 / 41024.2 2.6 6.1
2016-Dec-03 03:00N 41°54' W 083°18'0 0.0 350 / 81023.9 2.4 6.1
2016-Dec-03 02:00N 41°54' W 083°18'0 0.0 030 / 131023.2 2.6 6.2
2016-Dec-03 01:00N 41°54' W 083°18'9 8.9 290 / 131022.5 2.8 5.9
2016-Dec-03 00:00N 41°54' W 083°06'6 6.0 300 / 211020.8 3.1 6.0
2016-Dec-02 23:00N 42°00' W 083°06'1212.0 300 / 191020.8 3.3 7.3
2016-Dec-02 22:00N 42°12' W 083°06'7 7.5 280 / 151020.6 3.2 7.3
2016-Dec-02 21:00N 42°18' W 083°00'1110.7 310 / 81019.6 3.7 7.5
2016-Dec-02 20:00N 42°24' W 082°48'7 7.5 310 / 241017.9 4.0 7.7
2016-Dec-02 19:00N 42°30' W 082°42'1110.7 330 / 131016.9 4.1 8.5
2016-Dec-02 18:00N 42°36' W 082°30'1212.0 300 / 141016.7 4.0 9.0
2016-Dec-02 17:00N 42°48' W 082°30'0 0.0 310 / 141016.7 3.8 10.6
2016-Dec-02 16:00N 42°48' W 082°30'0 0.0 100 / 21017.1 3.4 10.6
2016-Dec-02 15:00N 42°48' W 082°30'0 0.0 010 / 21016.7 2.9 10.4
2016-Dec-02 14:00N 42°48' W 082°30'0 0.0 040 / 11016.0 3.0 10.5
2016-Dec-02 13:00N 42°48' W 082°30'0 0.0 190 / 11015.4 2.8 10.5
2016-Dec-02 12:00N 42°48' W 082°30'0 0.0 050 / 21015.0 3.2 10.1
2016-Dec-02 11:00N 42°48' W 082°30'0 0.0 340 / 21014.0 3.9 10.1
2016-Dec-02 10:00N 42°48' W 082°30'0 0.0 280 / 51013.3 3.8 10.0
2016-Dec-02 09:00N 42°48' W 082°30'0 0.0 240 / 111013.3 4.4 10.0
2016-Dec-02 08:00N 42°48' W 082°30'6 6.0 250 / 81013.0 3.9 8.9
2016-Dec-02 07:00N 42°54' W 082°30'7 7.4 240 / 81012.0 4.3 8.9
2016-Dec-02 06:00N 43°00' W 082°24'1212.0 260 / 151011.0 4.8 9.2
2016-Dec-02 05:00N 43°12' W 082°24'1212.0 270 / 201010.310.8 5.4 9.6
2016-Dec-02 04:00N 43°24' W 082°24'1212.0 280 / 201009.6 4.8 9.6
2016-Dec-02 03:00N 43°36' W 082°24'1212.0 270 / 241008.6 5.4 9.4
2016-Dec-02 02:00N 43°48' W 082°24'1312.8 270 / 291006.9 5.3 9.1
2016-Dec-02 01:00N 44°00' W 082°30'1312.8 270 / 271006.6 5.5 9.0
2016-Dec-02 00:00N 44°12' W 082°36'5112.7 270 / 271005.5 5.7 8.4
2016-Dec-01 20:00N 45°00' W 083°00'1312.7 260 / 221001.8 5.7 8.3
2016-Dec-01 19:00N 45°12' W 083°06'7 7.3 260 / 181001.5 5.7 8.0
2016-Dec-01 18:00N 45°18' W 083°12'1514.7 260 / 171000.8 5.7 8.0
2016-Dec-01 17:00N 45°30' W 083°24'2512.3 240 / 191000.510.8 5.3 7.5
2016-Dec-01 15:00N 45°48' W 083°48'1312.7 240 / 18999.8 4.4 6.3
2016-Dec-01 14:00N 46°00' W 083°54'7 7.3 300 / 3999.4 4.3 6.4
2016-Dec-01 13:00N 46°06' W 084°00'1010.3 060 / 3999.4 2.6 7.2
2016-Dec-01 12:00N 46°12' W 084°12'6 6.0 030 / 5999.1 3.0 7.6
2016-Dec-01 11:00N 46°18' W 084°12'7 7.3 150 / 1998.8 1.7 7.8
2016-Dec-01 10:00N 46°24' W 084°18'6 6.0 250 / 2998.4 0.9 8.0
2016-Dec-01 09:00N 46°30' W 084°18'4 4.1 330 / 1998.4 1.9 8.0
2016-Dec-01 08:00N 46°30' W 084°24'0 0.0 190 / 1998.6 2.8 8.1
2016-Dec-01 07:00N 46°30' W 084°24'4 4.1 290 / 5998.6 4.0 8.2
2016-Dec-01 06:00N 46°30' W 084°30'4 4.1 290 / 3998.3 3.8 8.3
2016-Dec-01 05:00N 46°30' W 084°36'1010.2 270 / 7998.0 4.3 8.6
2016-Dec-01 04:00N 46°36' W 084°48'1312.7 260 / 12998.0 4.9 8.9
2016-Dec-01 03:00N 46°48' W 084°54'1413.7 230 / 13998.0 4.8 8.3
2016-Dec-01 02:00N 46°54' W 085°12'1010.2 220 / 16998.3 5.9 8.0
2016-Dec-01 01:00N 47°00' W 085°24'1413.7 210 / 11998.0 6.4 7.5
2016-Dec-01 00:00N 47°06' W 085°42'6012.0 210 / 11998.0 5.7 6.3
2016-Nov-30 19:00N 47°24' W 087°06'1413.6 010 / 18998.6 4.8 5.9
2016-Nov-30 18:00N 47°30' W 087°24'1010.1 040 / 15999.3 4.3 5.6
2016-Nov-30 17:00N 47°36' W 087°36'1212.1 320 / 151000.310.8 4.8 6.5
2016-Nov-30 16:00N 47°36' W 087°54'1212.1 350 / 91001.0 4.9 7.0
2016-Nov-30 15:00N 47°36' W 088°12'1212.1 140 / 191001.4 4.5 7.2
2016-Nov-30 14:00N 47°36' W 088°30'1413.5 180 / 41001.4 4.0 7.0
2016-Nov-30 13:00N 47°30' W 088°48'1212.2 140 / 91001.0 4.0 7.1
2016-Nov-30 12:00N 47°30' W 089°06'1413.6 160 / 41000.7 3.8 6.7
2016-Nov-30 11:00N 47°24' W 089°24'1212.2 170 / 71000.3 3.9 6.3
2016-Nov-30 10:00N 47°24' W 089°42'1212.2 270 / 31000.3 3.9 6.8
2016-Nov-30 09:00N 47°24' W 090°00'1413.6 200 / 31000.3 3.8 5.6
2016-Nov-30 08:00N 47°18' W 090°18'1212.2 190 / 81000.3 3.9 5.9
2016-Nov-30 07:00N 47°18' W 090°36'1413.6 200 / 7999.7 3.9 6.1
2016-Nov-30 06:00N 47°12' W 090°54'1010.1 170 / 10999.3 3.9 7.3
2016-Nov-30 05:00N 47°06' W 091°06'1413.7 220 / 11999.3 4.0 7.6
2016-Nov-30 04:00N 47°00' W 091°24'912.6 150 / 13998.6 3.9 7.6
2016-Nov-30 03:18N 46°57' W 091°36'516.3
2016-Nov-30 03:00N 46°54' W 091°42'4 9.8 200 / 11998.3 3.7 6.7
2016-Nov-30 02:33N 46°53' W 091°48'611.2
2016-Nov-30 02:00N 46°48' W 091°54'715.3 200 / 11998.0 3.7 7.1
2016-Nov-30 01:33N 46°47' W 092°04'2 3.0
2016-Nov-30 01:00N 46°48' W 092°06'3 6.2 220 / 5997.6 3.3 4.6
2016-Nov-30 00:26N 46°45' W 092°07'3 6.0
2016-Nov-30 00:00N 46°42' W 092°06'3 5.2 260 / 6997.0 4.7 4.1
2016-Nov-29 23:29N 46°45' W 092°07'3 5.4
2016-Nov-29 23:00N 46°42' W 092°06'3 5.2 210 / 11996.3 5.3 4.0
2016-Nov-29 22:29N 46°45' W 092°07'3 5.4
2016-Nov-29 22:00N 46°42' W 092°06'3 5.7 210 / 10994.9 5.3 4.1
2016-Nov-29 21:32N 46°45' W 092°07'3 4.9
2016-Nov-29 21:00N 46°42' W 092°06'3 5.7 200 / 14993.9 4.3 4.2
2016-Nov-29 20:32N 46°45' W 092°07'3 4.9
2016-Nov-29 20:00N 46°42' W 092°06'3 5.7 240 / 13992.9 4.7 4.2
2016-Nov-29 19:32N 46°45' W 092°07'3 4.9
2016-Nov-29 19:00N 46°42' W 092°06'3 5.7 290 / 14991.9 5.6 4.2
2016-Nov-29 18:32N 46°45' W 092°07'3 4.9
2016-Nov-29 18:00N 46°42' W 092°06'3 5.7 220 / 5991.5 5.1 4.3
2016-Nov-29 17:32N 46°45' W 092°07'3 4.9
2016-Nov-29 17:00N 46°42' W 092°06'3 5.7 210 / 8990.9 4.8 4.1
2016-Nov-29 16:32N 46°45' W 092°07'3 4.9
2016-Nov-29 16:00N 46°42' W 092°06'3 5.7 220 / 8989.8 4.4 4.0
2016-Nov-29 15:32N 46°45' W 092°07'3 4.9
2016-Nov-29 15:00N 46°42' W 092°06'3 4.3 210 / 6989.2 4.9 4.0
2016-Nov-29 14:23N 46°45' W 092°07'3 6.8
2016-Nov-29 14:00N 46°42' W 092°06'3 6.0 190 / 8987.8 3.6 4.1
2016-Nov-29 13:33N 46°45' W 092°07'3 4.7
2016-Nov-29 13:00N 46°42' W 092°06'3 7.3 220 / 5986.8 4.3 4.1
2016-Nov-29 12:33N 46°45' W 092°06'3 5.1
2016-Nov-29 12:00N 46°48' W 092°06'2 5.6 220 / 7985.8 4.0 5.2
2016-Nov-29 11:33N 46°46' W 092°06'2 4.3
2016-Nov-29 11:00N 46°48' W 092°06'2 3.5 250 / 7985.1 4.6 5.1
2016-Nov-29 10:33N 46°46' W 092°06'4 7.7
2016-Nov-29 10:00N 46°48' W 092°00'511.6 240 / 11984.1 5.0 7.1
2016-Nov-29 09:33N 46°50' W 091°53'915.3
2016-Nov-29 09:00N 46°54' W 091°42'4 9.2 080 / 12983.4 6.7 6.8
2016-Nov-29 08:33N 46°54' W 091°36'4 7.6
2016-Nov-29 08:00N 46°54' W 091°30'920.5 050 / 12983.427.0 6.9 7.1
2016-Nov-29 07:33N 46°59' W 091°19'5 8.7
2016-Nov-29 07:00N 47°00' W 091°12'1413.7 070 / 12983.1 6.9 7.2
2016-Nov-29 06:00N 47°06' W 090°54'1212.3 090 / 12984.4 6.6 6.6
2016-Nov-29 05:00N 47°06' W 090°36'1413.6 100 / 14985.1 6.4 6.4
2016-Nov-29 04:00N 47°12' W 090°18'1212.2 090 / 15985.8 6.0 6.3
2016-Nov-29 03:00N 47°12' W 090°00'1413.6 090 / 15987.5 6.1 6.4
2016-Nov-29 02:00N 47°18' W 089°42'1212.2 110 / 16988.5 5.4 6.2 6.5
2016-Nov-29 01:00N 47°18' W 089°24'1413.6 120 / 20989.5 6.4 6.5
2016-Nov-29 00:00N 47°24' W 089°06'8 8.1 120 / 25990.5 6.7 6.7
2016-Nov-28 23:00N 47°24' W 088°54'8 8.1 130 / 28991.5 6.8 6.7
2016-Nov-28 22:00N 47°24' W 088°42'1413.6 120 / 31992.2 6.6 7.2
2016-Nov-28 21:00N 47°30' W 088°24'1212.2 140 / 23994.2 6.8 7.2
2016-Nov-28 20:00N 47°30' W 088°06'1212.2 130 / 23995.6 6.3 7.2
2016-Nov-28 19:00N 47°30' W 087°48'1212.2 140 / 24997.0 5.8 5.7
2016-Nov-28 18:00N 47°30' W 087°30'1413.6 140 / 22998.6 5.7 6.4
2016-Nov-28 17:00N 47°24' W 087°12'1010.1 140 / 231000.0 5.1 5.9
2016-Nov-28 16:00N 47°18' W 087°00'1413.6 150 / 271000.3 5.2 6.0
2016-Nov-28 15:00N 47°12' W 086°42'6412.8 160 / 261001.7 5.0 6.9
2016-Nov-28 10:00N 46°54' W 085°12'1413.7 140 / 301007.1 6.1 8.4
2016-Nov-28 09:00N 46°48' W 084°54'1312.7 150 / 281008.8 5.9 8.9
2016-Nov-28 08:00N 46°36' W 084°48'1010.2 150 / 241010.5 5.1 9.0
2016-Nov-28 07:00N 46°30' W 084°36'8 8.3 140 / 181011.9 5.3 8.5
2016-Nov-28 06:00N 46°30' W 084°24'4 4.1 130 / 121012.9 5.0 7.9
2016-Nov-28 05:00N 46°30' W 084°18'0 0.0 100 / 81013.3 5.6 7.7
2016-Nov-28 04:00N 46°30' W 084°18'0 0.0 120 / 121013.3 5.6 7.6
2016-Nov-28 03:00N 46°30' W 084°18'6 6.0 120 / 91014.7 5.6 7.8
2016-Nov-28 02:00N 46°24' W 084°18'1010.2 090 / 101015.4 4.1 7.6
2016-Nov-28 01:00N 46°18' W 084°06'6 6.0 120 / 81015.4 5.0 7.4
2016-Nov-28 00:00N 46°12' W 084°06'7 7.3 100 / 91015.7 5.3 6.8
2016-Nov-27 23:00N 46°06' W 084°00'1312.7 170 / 81016.4 5.1 4.7
2016-Nov-27 22:00N 45°54' W 083°54'1514.6 160 / 121016.4 5.9 6.6
2016-Nov-27 21:00N 45°42' W 083°42'2512.3 120 / 101016.7 6.0 7.1
2016-Nov-27 19:00N 45°24' W 083°18'1312.7 170 / 101017.7 6.1 8.9
2016-Nov-27 18:00N 45°12' W 083°12'1514.7 180 / 101018.4 5.2 8.6
2016-Nov-27 17:00N 45°00' W 083°00'1312.7 180 / 91019.1 3.0 8.8
2016-Nov-27 16:00N 44°48' W 082°54'5313.1 220 / 121019.8 2.2 3.3 8.1
2016-Nov-27 12:00N 44°00' W 082°24'1212.0 240 / 101020.1 4.3 9.3
2016-Nov-27 11:00N 43°48' W 082°24'1212.0 250 / 121020.4 4.3 9.5
2016-Nov-27 10:00N 43°36' W 082°24'1212.0 250 / 151020.8 4.3 9.8
2016-Nov-27 09:00N 43°24' W 082°24'1212.0 220 / 141021.5 4.1 9.7
2016-Nov-27 08:00N 43°12' W 082°24'1212.0 250 / 131021.8 3.2 9.4
2016-Nov-27 07:00N 43°00' W 082°24'7 7.4 220 / 41022.1 1.9 8.9
2016-Nov-27 06:00N 42°54' W 082°30'1212.0 260 / 41022.8 2.3 8.9
2016-Nov-27 05:00N 42°42' W 082°30'7 7.4 240 / 71022.8 3.8 8.8
2016-Nov-27 04:00N 42°36' W 082°36'7 7.5 280 / 101023.2 4.5 8.3
2016-Nov-27 03:00N 42°30' W 082°42'1110.7 250 / 131023.3 4.8 7.8
2016-Nov-27 02:00N 42°24' W 082°54'1110.7 260 / 91023.3 4.8 6.7
2016-Nov-27 01:00N 42°18' W 083°06'1212.0 250 / 101023.3 4.7 6.2
2016-Nov-27 00:00N 42°06' W 083°06'6 6.0 220 / 101024.0 4.5 6.0
2016-Nov-26 23:00N 42°00' W 083°06'7 7.5 270 / 111024.2 4.7 5.6
2016-Nov-26 22:00N 41°54' W 083°12'4 4.5 270 / 111024.5 5.3 6.4
2016-Nov-26 21:00N 41°54' W 083°18'0 0.0 280 / 101024.5 5.3 6.2
2016-Nov-26 20:00N 41°54' W 083°18'0 0.0 340 / 111024.2 5.7 6.4
2016-Nov-26 19:00N 41°54' W 083°18'0 0.0 010 / 91024.2 5.7 6.0
2016-Nov-26 18:00N 41°54' W 083°18'0 0.0 310 / 81024.5 5.4 6.0
2016-Nov-26 17:00N 41°54' W 083°18'0 0.0 350 / 61025.2 5.3 6.4
2016-Nov-26 16:00N 41°54' W 083°18'0 0.0 010 / 121025.9 4.8 6.1
2016-Nov-26 15:00N 41°54' W 083°18'0 0.0 350 / 91025.9 4.2 6.5
2016-Nov-26 14:00N 41°54' W 083°18'0 0.0 350 / 111025.6 3.3 5.9
2016-Nov-26 13:00N 41°54' W 083°18'0 0.0 350 / 91025.2 3.2 5.8
2016-Nov-26 12:00N 41°54' W 083°18'0 0.0 290 / 91025.2 3.7 5.9
2016-Nov-26 11:00N 41°54' W 083°18'4 4.5 260 / 101024.9 3.5 6.1
2016-Nov-26 10:00N 41°54' W 083°12'7 7.5 270 / 141023.9 4.0 6.2
2016-Nov-26 09:00N 42°00' W 083°06'1212.0 260 / 151023.5 3.8 5.7
2016-Nov-26 08:00N 42°12' W 083°06'6 6.0 300 / 91023.6 3.5 5.8
2016-Nov-26 07:00N 42°18' W 083°06'1110.7 280 / 71023.3 4.0 6.3
2016-Nov-26 06:00N 42°24' W 082°54'1110.7 260 / 101022.6 4.2 6.9
2016-Nov-26 05:00N 42°30' W 082°42'1110.7 260 / 121022.3 4.4 8.3
2016-Nov-26 04:00N 42°36' W 082°30'1212.0 260 / 41023.2 3.8 8.7
2016-Nov-26 03:00N 42°48' W 082°30'0 0.0 250 / 71023.5 4.3 9.5
2016-Nov-26 02:00N 42°48' W 082°30'0 0.0 1023.8 3.8 10.6
2016-Nov-26 01:00N 42°48' W 082°30'0 0.0 270 / 11023.8 4.0 10.7
2016-Nov-26 00:00N 42°48' W 082°30'0 0.0 010 / 11023.8 4.6 10.7
2016-Nov-25 23:00N 42°48' W 082°30'0 0.0 180 / 11023.5 5.3 10.7
2016-Nov-25 22:00N 42°48' W 082°30'0 0.0 240 / 11023.5 5.4 10.4
2016-Nov-25 21:00N 42°48' W 082°30'0 0.0 100 / 21023.5 5.6 10.5
2016-Nov-25 20:00N 42°48' W 082°30'0 0.0 010 / 11023.2 5.4 10.3
2016-Nov-25 19:00N 42°48' W 082°30'0 0.0 010 / 21022.8 6.3 10.2
2016-Nov-25 18:00N 42°48' W 082°30'6 6.0 300 / 101023.2 6.1 8.8
2016-Nov-25 17:00N 42°54' W 082°30'7 7.4 260 / 81023.5 5.5 8.9
2016-Nov-25 16:00N 43°00' W 082°24'1212.0 270 / 101023.5 5.0 9.1
2016-Nov-25 15:00N 43°12' W 082°24'1212.0 270 / 141022.8 5.0 9.8
2016-Nov-25 14:00N 43°24' W 082°24'1212.0 260 / 151022.8 4.8 9.4
2016-Nov-25 13:00N 43°36' W 082°24'1212.0 270 / 261022.1 4.8 9.7
2016-Nov-25 12:00N 43°48' W 082°24'1312.8 260 / 191020.8 4.8 9.2
2016-Nov-25 11:00N 44°00' W 082°30'6911.6 240 / 181020.4 4.7 9.4
2016-Nov-25 05:00N 45°06' W 083°00'1514.7 230 / 91019.8 4.7 9.0
2016-Nov-25 04:00N 45°18' W 083°12'1514.7 070 / 181020.110.8 5.0 8.0
2016-Nov-25 03:00N 45°30' W 083°24'7 7.3 060 / 171020.4 3.8 7.8
2016-Nov-25 02:00N 45°36' W 083°30'2512.3 060 / 131021.1 2.7 7.2
2016-Nov-25 00:00N 45°54' W 083°54'1312.7 050 / 101021.5 1.7 5.8
2016-Nov-24 23:00N 46°06' W 084°00'7 7.3 030 / 71021.8 1.0 4.5
2016-Nov-24 22:00N 46°12' W 084°06'7 7.3 050 / 81021.5 1.5 5.2
2016-Nov-24 21:00N 46°18' W 084°12'6 6.0 330 / 11021.1 1.3 5.7
2016-Nov-24 20:00N 46°24' W 084°12'7 7.3 070 / 21020.4 1.5 6.5
2016-Nov-24 19:00N 46°30' W 084°18'4 4.1 090 / 31020.1 1.4 6.6
2016-Nov-24 18:00N 46°30' W 084°24'0 0.0 050 / 51021.0 1.1 6.4
2016-Nov-24 17:00N 46°30' W 084°24'4 4.1 100 / 61020.3 0.6 6.6
2016-Nov-24 16:00N 46°30' W 084°30'4 4.1 070 / 71020.0 -0.1 7.9
2016-Nov-24 15:00N 46°30' W 084°36'1514.6 080 / 111020.0 -0.2 9.2
2016-Nov-24 14:00N 46°42' W 084°48'1010.2 080 / 121020.0 0.3 9.2
2016-Nov-24 13:00N 46°48' W 085°00'1010.2 110 / 101019.0 1.1 8.9
2016-Nov-24 12:00N 46°54' W 085°12'1413.7 090 / 121019.0 1.7 9.1
2016-Nov-24 11:00N 47°00' W 085°30'7011.6 080 / 121018.3 1.9 7.9
2016-Nov-24 05:00N 47°24' W 087°06'1010.1 110 / 161017.6 2.7 6.4
2016-Nov-24 04:00N 47°30' W 087°18'1413.5 110 / 131017.6 2.3 6.0
2016-Nov-24 03:00N 47°36' W 087°36'1212.1 120 / 111017.910.8 2.8 6.3
2016-Nov-24 02:00N 47°36' W 087°54'1212.1 090 / 131017.9 2.2 7.6
2016-Nov-24 01:00N 47°36' W 088°12'1212.1 100 / 151017.6 2.4 7.5
2016-Nov-24 00:00N 47°36' W 088°30'1413.5 100 / 131017.6 2.3 7.6
2016-Nov-23 23:00N 47°30' W 088°48'8 8.1 110 / 131017.610.8 2.5 7.6
2016-Nov-23 22:00N 47°30' W 089°00'1413.6 110 / 111017.6 2.4 6.5
2016-Nov-23 21:00N 47°24' W 089°18'1212.2 120 / 141017.6 2.6 6.5
2016-Nov-23 20:00N 47°24' W 089°36'1212.2 110 / 161017.6 1.9 6.7
2016-Nov-23 19:00N 47°24' W 089°54'   100 / 151017.6 2.5 5.7
Track history (hours):
 
Tides and Currents Weather Stations Pressure Air Temp Water Temp Dewpoint Dewpoint Depression Visibility Wind Speed Wind Dir Waves Ship Positions

Paul R Tregurtha

Owner: THE INTERLAKE STEAMSHIP COMPANY, Middleburg Heights, OH. More information available from US FCC via Universal Licensing System and Coast Guard Vessel Documentation Center.

Last reported at 2016-Dec-03 19:00 UTC. Time now 2016-Dec-03 19:39 UTC.
Position N 42°42' W 082°30'.

Length 309 m; draft 8.5 m.

Type: Cargo ship. MMSI: 366904940.

Wind from 250 at 9 knots

Barometer 1025.2 mb
Air temperature 4.1 ° C
Water temperature 8.3 ° C

Date/timePositionNaut miles runAvg speedWind from/ knotsBaromVisibWave heightAir tempDewpointWater temp
2016-Dec-03 19:00N 42°42' W 082°30'7 7.4 250 / 91025.2 4.1 8.3
2016-Dec-03 18:00N 42°36' W 082°36'7 7.5 280 / 81024.3 3.7 8.1
2016-Dec-03 17:00N 42°30' W 082°42'1110.7 290 / 111025.0 3.3 6.8
2016-Dec-03 16:00N 42°24' W 082°54'1110.7 300 / 91026.0 2.9 6.9
2016-Dec-03 15:00N 42°18' W 083°06'1212.0 280 / 101026.7 2.8 7.0
2016-Dec-03 14:00N 42°06' W 083°06'6 6.0 270 / 71026.7 2.3 6.5
2016-Dec-03 13:00N 42°00' W 083°06'7 7.5 260 / 101026.2 2.6 6.5
2016-Dec-03 12:00N 41°54' W 083°12'4 4.5 260 / 111026.2 3.7 5.8
2016-Dec-03 11:00N 41°54' W 083°18'0 0.0 270 / 61025.6 2.8 5.9
2016-Dec-03 10:00N 41°54' W 083°18'0 0.0 1025.2 2.6 6.1
2016-Dec-03 09:00N 41°54' W 083°18'0 0.0 350 / 71025.2 2.4 6.3
2016-Dec-03 08:00N 41°54' W 083°18'0 0.0 340 / 41024.9 2.3 6.7
2016-Dec-03 07:00N 41°54' W 083°18'0 0.0 320 / 21024.5 2.7 6.2
2016-Dec-03 06:00N 41°54' W 083°18'0 0.0 340 / 61024.2 2.5 6.3
2016-Dec-03 05:00N 41°54' W 083°18'0 0.0 310 / 31024.5 2.5 6.0
2016-Dec-03 04:00N 41°54' W 083°18'0 0.0 350 / 41024.2 2.6 6.1
2016-Dec-03 03:00N 41°54' W 083°18'0 0.0 350 / 81023.9 2.4 6.1
2016-Dec-03 02:00N 41°54' W 083°18'0 0.0 030 / 131023.2 2.6 6.2
2016-Dec-03 01:00N 41°54' W 083°18'9 8.9 290 / 131022.5 2.8 5.9
2016-Dec-03 00:00N 41°54' W 083°06'6 6.0 300 / 211020.8 3.1 6.0
2016-Dec-02 23:00N 42°00' W 083°06'1212.0 300 / 191020.8 3.3 7.3
2016-Dec-02 22:00N 42°12' W 083°06'7 7.5 280 / 151020.6 3.2 7.3
2016-Dec-02 21:00N 42°18' W 083°00'1110.7 310 / 81019.6 3.7 7.5
2016-Dec-02 20:00N 42°24' W 082°48'7 7.5 310 / 241017.9 4.0 7.7
2016-Dec-02 19:00N 42°30' W 082°42'1110.7 330 / 131016.9 4.1 8.5
2016-Dec-02 18:00N 42°36' W 082°30'1212.0 300 / 141016.7 4.0 9.0
2016-Dec-02 17:00N 42°48' W 082°30'0 0.0 310 / 141016.7 3.8 10.6
2016-Dec-02 16:00N 42°48' W 082°30'0 0.0 100 / 21017.1 3.4 10.6
2016-Dec-02 15:00N 42°48' W 082°30'0 0.0 010 / 21016.7 2.9 10.4
2016-Dec-02 14:00N 42°48' W 082°30'0 0.0 040 / 11016.0 3.0 10.5
2016-Dec-02 13:00N 42°48' W 082°30'0 0.0 190 / 11015.4 2.8 10.5
2016-Dec-02 12:00N 42°48' W 082°30'0 0.0 050 / 21015.0 3.2 10.1
2016-Dec-02 11:00N 42°48' W 082°30'0 0.0 340 / 21014.0 3.9 10.1
2016-Dec-02 10:00N 42°48' W 082°30'0 0.0 280 / 51013.3 3.8 10.0
2016-Dec-02 09:00N 42°48' W 082°30'0 0.0 240 / 111013.3 4.4 10.0
2016-Dec-02 08:00N 42°48' W 082°30'6 6.0 250 / 81013.0 3.9 8.9
2016-Dec-02 07:00N 42°54' W 082°30'7 7.4 240 / 81012.0 4.3 8.9
2016-Dec-02 06:00N 43°00' W 082°24'1212.0 260 / 151011.0 4.8 9.2
2016-Dec-02 05:00N 43°12' W 082°24'1212.0 270 / 201010.310.8 5.4 9.6
2016-Dec-02 04:00N 43°24' W 082°24'1212.0 280 / 201009.6 4.8 9.6
2016-Dec-02 03:00N 43°36' W 082°24'1212.0 270 / 241008.6 5.4 9.4
2016-Dec-02 02:00N 43°48' W 082°24'1312.8 270 / 291006.9 5.3 9.1
2016-Dec-02 01:00N 44°00' W 082°30'1312.8 270 / 271006.6 5.5 9.0
2016-Dec-02 00:00N 44°12' W 082°36'5112.7 270 / 271005.5 5.7 8.4
2016-Dec-01 20:00N 45°00' W 083°00'1312.7 260 / 221001.8 5.7 8.3
2016-Dec-01 19:00N 45°12' W 083°06'7 7.3 260 / 181001.5 5.7 8.0
2016-Dec-01 18:00N 45°18' W 083°12'1514.7 260 / 171000.8 5.7 8.0
2016-Dec-01 17:00N 45°30' W 083°24'2512.3 240 / 191000.510.8 5.3 7.5
2016-Dec-01 15:00N 45°48' W 083°48'1312.7 240 / 18999.8 4.4 6.3
2016-Dec-01 14:00N 46°00' W 083°54'7 7.3 300 / 3999.4 4.3 6.4
2016-Dec-01 13:00N 46°06' W 084°00'1010.3 060 / 3999.4 2.6 7.2
2016-Dec-01 12:00N 46°12' W 084°12'6 6.0 030 / 5999.1 3.0 7.6
2016-Dec-01 11:00N 46°18' W 084°12'7 7.3 150 / 1998.8 1.7 7.8
2016-Dec-01 10:00N 46°24' W 084°18'6 6.0 250 / 2998.4 0.9 8.0
2016-Dec-01 09:00N 46°30' W 084°18'4 4.1 330 / 1998.4 1.9 8.0
2016-Dec-01 08:00N 46°30' W 084°24'0 0.0 190 / 1998.6 2.8 8.1
2016-Dec-01 07:00N 46°30' W 084°24'4 4.1 290 / 5998.6 4.0 8.2
2016-Dec-01 06:00N 46°30' W 084°30'4 4.1 290 / 3998.3 3.8 8.3
2016-Dec-01 05:00N 46°30' W 084°36'1010.2 270 / 7998.0 4.3 8.6
2016-Dec-01 04:00N 46°36' W 084°48'1312.7 260 / 12998.0 4.9 8.9
2016-Dec-01 03:00N 46°48' W 084°54'1413.7 230 / 13998.0 4.8 8.3
2016-Dec-01 02:00N 46°54' W 085°12'1010.2 220 / 16998.3 5.9 8.0
2016-Dec-01 01:00N 47°00' W 085°24'1413.7 210 / 11998.0 6.4 7.5
2016-Dec-01 00:00N 47°06' W 085°42'6012.0 210 / 11998.0 5.7 6.3
2016-Nov-30 19:00N 47°24' W 087°06'1413.6 010 / 18998.6 4.8 5.9
2016-Nov-30 18:00N 47°30' W 087°24'1010.1 040 / 15999.3 4.3 5.6
2016-Nov-30 17:00N 47°36' W 087°36'1212.1 320 / 151000.310.8 4.8 6.5
2016-Nov-30 16:00N 47°36' W 087°54'1212.1 350 / 91001.0 4.9 7.0
2016-Nov-30 15:00N 47°36' W 088°12'1212.1 140 / 191001.4 4.5 7.2
2016-Nov-30 14:00N 47°36' W 088°30'1413.5 180 / 41001.4 4.0 7.0
2016-Nov-30 13:00N 47°30' W 088°48'1212.2 140 / 91001.0 4.0 7.1
2016-Nov-30 12:00N 47°30' W 089°06'1413.6 160 / 41000.7 3.8 6.7
2016-Nov-30 11:00N 47°24' W 089°24'1212.2 170 / 71000.3 3.9 6.3
2016-Nov-30 10:00N 47°24' W 089°42'1212.2 270 / 31000.3 3.9 6.8
2016-Nov-30 09:00N 47°24' W 090°00'1413.6 200 / 31000.3 3.8 5.6
2016-Nov-30 08:00N 47°18' W 090°18'1212.2 190 / 81000.3 3.9 5.9
2016-Nov-30 07:00N 47°18' W 090°36'1413.6 200 / 7999.7 3.9 6.1
2016-Nov-30 06:00N 47°12' W 090°54'1010.1 170 / 10999.3 3.9 7.3
2016-Nov-30 05:00N 47°06' W 091°06'1413.7 220 / 11999.3 4.0 7.6
2016-Nov-30 04:00N 47°00' W 091°24'912.6 150 / 13998.6 3.9 7.6
2016-Nov-30 03:18N 46°57' W 091°36'516.3
2016-Nov-30 03:00N 46°54' W 091°42'4 9.8 200 / 11998.3 3.7 6.7
2016-Nov-30 02:33N 46°53' W 091°48'611.2
2016-Nov-30 02:00N 46°48' W 091°54'715.3 200 / 11998.0 3.7 7.1
2016-Nov-30 01:33N 46°47' W 092°04'2 3.0
2016-Nov-30 01:00N 46°48' W 092°06'3 6.2 220 / 5997.6 3.3 4.6
2016-Nov-30 00:26N 46°45' W 092°07'3 6.0
2016-Nov-30 00:00N 46°42' W 092°06'3 5.2 260 / 6997.0 4.7 4.1
2016-Nov-29 23:29N 46°45' W 092°07'3 5.4
2016-Nov-29 23:00N 46°42' W 092°06'3 5.2 210 / 11996.3 5.3 4.0
2016-Nov-29 22:29N 46°45' W 092°07'3 5.4
2016-Nov-29 22:00N 46°42' W 092°06'3 5.7 210 / 10994.9 5.3 4.1
2016-Nov-29 21:32N 46°45' W 092°07'3 4.9
2016-Nov-29 21:00N 46°42' W 092°06'3 5.7 200 / 14993.9 4.3 4.2
2016-Nov-29 20:32N 46°45' W 092°07'3 4.9
2016-Nov-29 20:00N 46°42' W 092°06'3 5.7 240 / 13992.9 4.7 4.2
2016-Nov-29 19:32N 46°45' W 092°07'3 4.9
2016-Nov-29 19:00N 46°42' W 092°06'3 5.7 290 / 14991.9 5.6 4.2
2016-Nov-29 18:32N 46°45' W 092°07'3 4.9
2016-Nov-29 18:00N 46°42' W 092°06'3 5.7 220 / 5991.5 5.1 4.3
2016-Nov-29 17:32N 46°45' W 092°07'3 4.9
2016-Nov-29 17:00N 46°42' W 092°06'3 5.7 210 / 8990.9 4.8 4.1
2016-Nov-29 16:32N 46°45' W 092°07'3 4.9
2016-Nov-29 16:00N 46°42' W 092°06'3 5.7 220 / 8989.8 4.4 4.0
2016-Nov-29 15:32N 46°45' W 092°07'3 4.9
2016-Nov-29 15:00N 46°42' W 092°06'3 4.3 210 / 6989.2 4.9 4.0
2016-Nov-29 14:23N 46°45' W 092°07'3 6.8
2016-Nov-29 14:00N 46°42' W 092°06'3 6.0 190 / 8987.8 3.6 4.1
2016-Nov-29 13:33N 46°45' W 092°07'3 4.7
2016-Nov-29 13:00N 46°42' W 092°06'3 7.3 220 / 5986.8 4.3 4.1
2016-Nov-29 12:33N 46°45' W 092°06'3 5.1
2016-Nov-29 12:00N 46°48' W 092°06'2 5.6 220 / 7985.8 4.0 5.2
2016-Nov-29 11:33N 46°46' W 092°06'2 4.3
2016-Nov-29 11:00N 46°48' W 092°06'2 3.5 250 / 7985.1 4.6 5.1
2016-Nov-29 10:33N 46°46' W 092°06'4 7.7
2016-Nov-29 10:00N 46°48' W 092°00'511.6 240 / 11984.1 5.0 7.1
2016-Nov-29 09:33N 46°50' W 091°53'915.3
2016-Nov-29 09:00N 46°54' W 091°42'4 9.2 080 / 12983.4 6.7 6.8
2016-Nov-29 08:33N 46°54' W 091°36'4 7.6
2016-Nov-29 08:00N 46°54' W 091°30'920.5 050 / 12983.427.0 6.9 7.1
2016-Nov-29 07:33N 46°59' W 091°19'5 8.7
2016-Nov-29 07:00N 47°00' W 091°12'1413.7 070 / 12983.1 6.9 7.2
2016-Nov-29 06:00N 47°06' W 090°54'1212.3 090 / 12984.4 6.6 6.6
2016-Nov-29 05:00N 47°06' W 090°36'1413.6 100 / 14985.1 6.4 6.4
2016-Nov-29 04:00N 47°12' W 090°18'1212.2 090 / 15985.8 6.0 6.3
2016-Nov-29 03:00N 47°12' W 090°00'1413.6 090 / 15987.5 6.1 6.4
2016-Nov-29 02:00N 47°18' W 089°42'1212.2 110 / 16988.5 5.4 6.2 6.5
2016-Nov-29 01:00N 47°18' W 089°24'1413.6 120 / 20989.5 6.4 6.5
2016-Nov-29 00:00N 47°24' W 089°06'8 8.1 120 / 25990.5 6.7 6.7
2016-Nov-28 23:00N 47°24' W 088°54'8 8.1 130 / 28991.5 6.8 6.7
2016-Nov-28 22:00N 47°24' W 088°42'1413.6 120 / 31992.2 6.6 7.2
2016-Nov-28 21:00N 47°30' W 088°24'1212.2 140 / 23994.2 6.8 7.2
2016-Nov-28 20:00N 47°30' W 088°06'1212.2 130 / 23995.6 6.3 7.2
2016-Nov-28 19:00N 47°30' W 087°48'1212.2 140 / 24997.0 5.8 5.7
2016-Nov-28 18:00N 47°30' W 087°30'1413.6 140 / 22998.6 5.7 6.4
2016-Nov-28 17:00N 47°24' W 087°12'1010.1 140 / 231000.0 5.1 5.9
2016-Nov-28 16:00N 47°18' W 087°00'1413.6 150 / 271000.3 5.2 6.0
2016-Nov-28 15:00N 47°12' W 086°42'6412.8 160 / 261001.7 5.0 6.9
2016-Nov-28 10:00N 46°54' W 085°12'1413.7 140 / 301007.1 6.1 8.4
2016-Nov-28 09:00N 46°48' W 084°54'1312.7 150 / 281008.8 5.9 8.9
2016-Nov-28 08:00N 46°36' W 084°48'1010.2 150 / 241010.5 5.1 9.0
2016-Nov-28 07:00N 46°30' W 084°36'8 8.3 140 / 181011.9 5.3 8.5
2016-Nov-28 06:00N 46°30' W 084°24'4 4.1 130 / 121012.9 5.0 7.9
2016-Nov-28 05:00N 46°30' W 084°18'0 0.0 100 / 81013.3 5.6 7.7
2016-Nov-28 04:00N 46°30' W 084°18'0 0.0 120 / 121013.3 5.6 7.6
2016-Nov-28 03:00N 46°30' W 084°18'6 6.0 120 / 91014.7 5.6 7.8
2016-Nov-28 02:00N 46°24' W 084°18'1010.2 090 / 101015.4 4.1 7.6
2016-Nov-28 01:00N 46°18' W 084°06'6 6.0 120 / 81015.4 5.0 7.4
2016-Nov-28 00:00N 46°12' W 084°06'7 7.3 100 / 91015.7 5.3 6.8
2016-Nov-27 23:00N 46°06' W 084°00'1312.7 170 / 81016.4 5.1 4.7
2016-Nov-27 22:00N 45°54' W 083°54'1514.6 160 / 121016.4 5.9 6.6
2016-Nov-27 21:00N 45°42' W 083°42'2512.3 120 / 101016.7 6.0 7.1
2016-Nov-27 19:00N 45°24' W 083°18'1312.7 170 / 101017.7 6.1 8.9
2016-Nov-27 18:00N 45°12' W 083°12'1514.7 180 / 101018.4 5.2 8.6
2016-Nov-27 17:00N 45°00' W 083°00'1312.7 180 / 91019.1 3.0 8.8
2016-Nov-27 16:00N 44°48' W 082°54'5313.1 220 / 121019.8 2.2 3.3 8.1
2016-Nov-27 12:00N 44°00' W 082°24'1212.0 240 / 101020.1 4.3 9.3
2016-Nov-27 11:00N 43°48' W 082°24'1212.0 250 / 121020.4 4.3 9.5
2016-Nov-27 10:00N 43°36' W 082°24'1212.0 250 / 151020.8 4.3 9.8
2016-Nov-27 09:00N 43°24' W 082°24'1212.0 220 / 141021.5 4.1 9.7
2016-Nov-27 08:00N 43°12' W 082°24'1212.0 250 / 131021.8 3.2 9.4
2016-Nov-27 07:00N 43°00' W 082°24'7 7.4 220 / 41022.1 1.9 8.9
2016-Nov-27 06:00N 42°54' W 082°30'1212.0 260 / 41022.8 2.3 8.9
2016-Nov-27 05:00N 42°42' W 082°30'7 7.4 240 / 71022.8 3.8 8.8
2016-Nov-27 04:00N 42°36' W 082°36'7 7.5 280 / 101023.2 4.5 8.3
2016-Nov-27 03:00N 42°30' W 082°42'1110.7 250 / 131023.3 4.8 7.8
2016-Nov-27 02:00N 42°24' W 082°54'1110.7 260 / 91023.3 4.8 6.7
2016-Nov-27 01:00N 42°18' W 083°06'1212.0 250 / 101023.3 4.7 6.2
2016-Nov-27 00:00N 42°06' W 083°06'6 6.0 220 / 101024.0 4.5 6.0
2016-Nov-26 23:00N 42°00' W 083°06'7 7.5 270 / 111024.2 4.7 5.6
2016-Nov-26 22:00N 41°54' W 083°12'4 4.5 270 / 111024.5 5.3 6.4
2016-Nov-26 21:00N 41°54' W 083°18'0 0.0 280 / 101024.5 5.3 6.2
2016-Nov-26 20:00N 41°54' W 083°18'0 0.0 340 / 111024.2 5.7 6.4
2016-Nov-26 19:00N 41°54' W 083°18'0 0.0 010 / 91024.2 5.7 6.0
2016-Nov-26 18:00N 41°54' W 083°18'0 0.0 310 / 81024.5 5.4 6.0
2016-Nov-26 17:00N 41°54' W 083°18'0 0.0 350 / 61025.2 5.3 6.4
2016-Nov-26 16:00N 41°54' W 083°18'0 0.0 010 / 121025.9 4.8 6.1
2016-Nov-26 15:00N 41°54' W 083°18'0 0.0 350 / 91025.9 4.2 6.5
2016-Nov-26 14:00N 41°54' W 083°18'0 0.0 350 / 111025.6 3.3 5.9
2016-Nov-26 13:00N 41°54' W 083°18'0 0.0 350 / 91025.2 3.2 5.8
2016-Nov-26 12:00N 41°54' W 083°18'0 0.0 290 / 91025.2 3.7 5.9
2016-Nov-26 11:00N 41°54' W 083°18'4 4.5 260 / 101024.9 3.5 6.1
2016-Nov-26 10:00N 41°54' W 083°12'7 7.5 270 / 141023.9 4.0 6.2
2016-Nov-26 09:00N 42°00' W 083°06'1212.0 260 / 151023.5 3.8 5.7
2016-Nov-26 08:00N 42°12' W 083°06'6 6.0 300 / 91023.6 3.5 5.8
2016-Nov-26 07:00N 42°18' W 083°06'1110.7 280 / 71023.3 4.0 6.3
2016-Nov-26 06:00N 42°24' W 082°54'1110.7 260 / 101022.6 4.2 6.9
2016-Nov-26 05:00N 42°30' W 082°42'1110.7 260 / 121022.3 4.4 8.3
2016-Nov-26 04:00N 42°36' W 082°30'1212.0 260 / 41023.2 3.8 8.7
2016-Nov-26 03:00N 42°48' W 082°30'0 0.0 250 / 71023.5 4.3 9.5
2016-Nov-26 02:00N 42°48' W 082°30'0 0.0 1023.8 3.8 10.6
2016-Nov-26 01:00N 42°48' W 082°30'0 0.0 270 / 11023.8 4.0 10.7
2016-Nov-26 00:00N 42°48' W 082°30'0 0.0 010 / 11023.8 4.6 10.7
2016-Nov-25 23:00N 42°48' W 082°30'0 0.0 180 / 11023.5 5.3 10.7
2016-Nov-25 22:00N 42°48' W 082°30'0 0.0 240 / 11023.5 5.4 10.4
2016-Nov-25 21:00N 42°48' W 082°30'0 0.0 100 / 21023.5 5.6 10.5
2016-Nov-25 20:00N 42°48' W 082°30'0 0.0 010 / 11023.2 5.4 10.3
2016-Nov-25 19:00N 42°48' W 082°30'0 0.0 010 / 21022.8 6.3 10.2
2016-Nov-25 18:00N 42°48' W 082°30'6 6.0 300 / 101023.2 6.1 8.8
2016-Nov-25 17:00N 42°54' W 082°30'7 7.4 260 / 81023.5 5.5 8.9
2016-Nov-25 16:00N 43°00' W 082°24'1212.0 270 / 101023.5 5.0 9.1
2016-Nov-25 15:00N 43°12' W 082°24'1212.0 270 / 141022.8 5.0 9.8
2016-Nov-25 14:00N 43°24' W 082°24'1212.0 260 / 151022.8 4.8 9.4
2016-Nov-25 13:00N 43°36' W 082°24'1212.0 270 / 261022.1 4.8 9.7
2016-Nov-25 12:00N 43°48' W 082°24'1312.8 260 / 191020.8 4.8 9.2
2016-Nov-25 11:00N 44°00' W 082°30'6911.6 240 / 181020.4 4.7 9.4
2016-Nov-25 05:00N 45°06' W 083°00'1514.7 230 / 91019.8 4.7 9.0
2016-Nov-25 04:00N 45°18' W 083°12'1514.7 070 / 181020.110.8 5.0 8.0
2016-Nov-25 03:00N 45°30' W 083°24'7 7.3 060 / 171020.4 3.8 7.8
2016-Nov-25 02:00N 45°36' W 083°30'2512.3 060 / 131021.1 2.7 7.2
2016-Nov-25 00:00N 45°54' W 083°54'1312.7 050 / 101021.5 1.7 5.8
2016-Nov-24 23:00N 46°06' W 084°00'7 7.3 030 / 71021.8 1.0 4.5
2016-Nov-24 22:00N 46°12' W 084°06'7 7.3 050 / 81021.5 1.5 5.2
2016-Nov-24 21:00N 46°18' W 084°12'6 6.0 330 / 11021.1 1.3 5.7
2016-Nov-24 20:00N 46°24' W 084°12'7 7.3 070 / 21020.4 1.5 6.5
2016-Nov-24 19:00N 46°30' W 084°18'4 4.1 090 / 31020.1 1.4 6.6
2016-Nov-24 18:00N 46°30' W 084°24'0 0.0 050 / 51021.0 1.1 6.4
2016-Nov-24 17:00N 46°30' W 084°24'4 4.1 100 / 61020.3 0.6 6.6
2016-Nov-24 16:00N 46°30' W 084°30'4 4.1 070 / 71020.0 -0.1 7.9
2016-Nov-24 15:00N 46°30' W 084°36'1514.6 080 / 111020.0 -0.2 9.2
2016-Nov-24 14:00N 46°42' W 084°48'1010.2 080 / 121020.0 0.3 9.2
2016-Nov-24 13:00N 46°48' W 085°00'1010.2 110 / 101019.0 1.1 8.9
2016-Nov-24 12:00N 46°54' W 085°12'1413.7 090 / 121019.0 1.7 9.1
2016-Nov-24 11:00N 47°00' W 085°30'7011.6 080 / 121018.3 1.9 7.9
2016-Nov-24 05:00N 47°24' W 087°06'1010.1 110 / 161017.6 2.7 6.4
2016-Nov-24 04:00N 47°30' W 087°18'1413.5 110 / 131017.6 2.3 6.0
2016-Nov-24 03:00N 47°36' W 087°36'1212.1 120 / 111017.910.8 2.8 6.3
2016-Nov-24 02:00N 47°36' W 087°54'1212.1 090 / 131017.9 2.2 7.6
2016-Nov-24 01:00N 47°36' W 088°12'1212.1 100 / 151017.6 2.4 7.5
2016-Nov-24 00:00N 47°36' W 088°30'1413.5 100 / 131017.6 2.3 7.6
2016-Nov-23 23:00N 47°30' W 088°48'8 8.1 110 / 131017.610.8 2.5 7.6
2016-Nov-23 22:00N 47°30' W 089°00'1413.6 110 / 111017.6 2.4 6.5
2016-Nov-23 21:00N 47°24' W 089°18'1212.2 120 / 141017.6 2.6 6.5
2016-Nov-23 20:00N 47°24' W 089°36'1212.2 110 / 161017.6 1.9 6.7
2016-Nov-23 19:00N 47°24' W 089°54'   100 / 151017.6 2.5 5.7

Dump ship's entire track history